Time;durP1;ratioP1;P1;durP2;ratioP2;P2;SDS_P1;SDS_P2;PMS_P1;PMS_P2;Temp;Humidity;BMP_temperature;BMP_pressure;BME280_temperature;BME280_humidity;BME280_pressure;Samples;Min_cycle;Max_cycle;Signal;HPM_P1;HPM_P2
2023/03/03 00:00:08;;;;;;;;;;;3.80;76.70;;;;;;8388268;28;19998;-70
2023/03/03 00:04:09;;;;;;;;;;;3.80;76.20;;;;;;8388839;28;19924;-70
2023/03/03 00:08:11;;;;;;;;;;;3.70;76.30;;;;;;8391706;28;20008;-70
2023/03/03 00:12:19;;;;;;;;;;;3.70;76.70;;;;;;8372470;28;19924;-70
2023/03/03 00:16:21;;;;;;;;;;;3.60;76.30;;;;;;8384130;28;19979;-70
2023/03/03 00:20:23;;;;;;;;;;;3.50;75.70;;;;;;8392426;28;19932;-70
2023/03/03 00:24:34;;;;;;;;;;;3.50;75.60;;;;;;8390661;28;19932;-69
2023/03/03 00:28:49;;;;;;;;;;;3.50;75.50;;;;;;8389478;28;20345;-69
2023/03/03 00:32:54;;;;;;;;;;;3.40;75.80;;;;;;8391504;28;19955;-69
2023/03/03 00:36:57;;;;;;;;;;;3.30;75.60;;;;;;8394353;28;19951;-69
2023/03/03 00:40:58;;;;;;;;;;;3.20;75.40;;;;;;8382844;28;20300;-69
2023/03/03 00:45:00;;;;;;;;;;;3.20;75.80;;;;;;8375512;28;19932;-69
2023/03/03 00:49:11;;;;;;;;;;;3.20;76.40;;;;;;8383554;28;19931;-70
2023/03/03 00:53:16;;;;;;;;;;;3.20;76.80;;;;;;8384262;28;19925;-70
2023/03/03 00:57:18;;;;;;;;;;;3.30;78.30;;;;;;8381788;28;19924;-70
2023/03/03 01:01:20;;;;;;;;;;;3.30;77.40;;;;;;8398756;28;20279;-70
2023/03/03 01:05:21;;;;;;;;;;;3.30;78.90;;;;;;8393859;28;19924;-70
2023/03/03 01:09:23;;;;;;;;;;;3.30;78.50;;;;;;8367757;28;19931;-70
2023/03/03 01:13:26;;;;;;;;;;;3.30;79.70;;;;;;8385262;28;19950;-70
2023/03/03 01:17:27;;;;;;;;;;;3.30;79.30;;;;;;8374804;28;19925;-70
2023/03/03 01:21:29;;;;;;;;;;;3.30;80.20;;;;;;8390961;28;20456;-70
2023/03/03 01:25:31;;;;;;;;;;;3.20;79.60;;;;;;8382503;28;20466;-70
2023/03/03 01:29:32;;;;;;;;;;;3.20;81.70;;;;;;8385761;28;19925;-70
2023/03/03 01:33:34;;;;;;;;;;;3.10;81.70;;;;;;8387566;28;20371;-70
2023/03/03 01:37:36;;;;;;;;;;;3.10;81.40;;;;;;8389865;28;20410;-69
2023/03/03 01:41:38;;;;;;;;;;;3.20;81.20;;;;;;8367347;28;20346;-69
2023/03/03 01:45:42;;;;;;;;;;;3.20;81.40;;;;;;8375379;28;19925;-69
2023/03/03 01:49:44;;;;;;;;;;;3.20;81.90;;;;;;8386653;28;19928;-69
2023/03/03 01:53:50;;;;;;;;;;;3.20;82.40;;;;;;8389905;28;20180;-69
2023/03/03 01:57:58;;;;;;;;;;;3.20;82.10;;;;;;8371790;28;19931;-69
2023/03/03 02:01:59;;;;;;;;;;;3.20;81.90;;;;;;8392111;28;20042;-69
2023/03/03 02:06:04;;;;;;;;;;;3.20;83.50;;;;;;8381954;28;19924;-69
2023/03/03 02:15:20;;;;;;;;;;;3.30;82.10;;;;;;8389459;28;19974;-69
2023/03/03 02:19:34;;;;;;;;;;;3.20;81.70;;;;;;8368406;28;20380;-69
2023/03/03 02:23:36;;;;;;;;;;;3.30;82.60;;;;;;8373760;28;19936;-70
2023/03/03 02:27:38;;;;;;;;;;;3.30;81.90;;;;;;8390510;28;19932;-69
2023/03/03 02:31:39;;;;;;;;;;;3.20;82.60;;;;;;8390563;28;20409;-69
2023/03/03 02:35:41;;;;;;;;;;;3.20;84.50;;;;;;8391764;28;19933;-69
2023/03/03 02:39:43;;;;;;;;;;;3.20;83.00;;;;;;8375605;28;19928;-70
2023/03/03 02:43:51;;;;;;;;;;;3.10;83.20;;;;;;8383543;28;20303;-70
2023/03/03 02:47:52;;;;;;;;;;;3.10;83.70;;;;;;8388850;28;19924;-70
2023/03/03 02:51:54;;;;;;;;;;;3.20;82.90;;;;;;8389083;28;19924;-70
2023/03/03 02:55:56;;;;;;;;;;;3.20;83.80;;;;;;8383700;28;20019;-69
2023/03/03 02:59:57;;;;;;;;;;;3.20;83.70;;;;;;8388302;28;20039;-69
2023/03/03 03:03:59;;;;;;;;;;;3.20;83.10;;;;;;8387165;28;20015;-69
2023/03/03 03:08:00;;;;;;;;;;;3.10;84.00;;;;;;8389253;28;20379;-69
2023/03/03 03:12:02;;;;;;;;;;;3.10;85.10;;;;;;8391166;28;20291;-69
2023/03/03 03:16:04;;;;;;;;;;;3.10;84.20;;;;;;8393019;28;20454;-69
2023/03/03 03:20:06;;;;;;;;;;;3.00;85.00;;;;;;8395712;28;19964;-69
2023/03/03 03:24:07;;;;;;;;;;;3.00;84.40;;;;;;8393212;28;19925;-69
2023/03/03 03:28:10;;;;;;;;;;;3.00;84.60;;;;;;8389080;28;19925;-69
2023/03/03 03:32:12;;;;;;;;;;;3.00;84.30;;;;;;8377129;28;19931;-69
2023/03/03 03:46:21;;;;;;;;;;;3.00;83.10;;;;;;8393988;28;19919;-70
2023/03/03 03:50:23;;;;;;;;;;;2.90;83.60;;;;;;8394613;28;19924;-69
2023/03/03 03:54:24;;;;;;;;;;;2.90;83.50;;;;;;8378741;28;20304;-69
2023/03/03 03:58:26;;;;;;;;;;;2.90;84.50;;;;;;8391310;28;19928;-69
2023/03/03 04:07:31;;;;;;;;;;;2.90;84.00;;;;;;8387641;28;19923;-69
2023/03/03 04:11:33;;;;;;;;;;;2.90;84.40;;;;;;8386572;28;19931;-69
2023/03/03 04:15:34;;;;;;;;;;;2.90;84.40;;;;;;8394513;28;19924;-69
2023/03/03 04:19:36;;;;;;;;;;;2.90;85.20;;;;;;8388285;28;19928;-69
2023/03/03 04:23:38;;;;;;;;;;;2.90;85.50;;;;;;8376237;28;19947;-69
2023/03/03 04:27:39;;;;;;;;;;;2.90;86.40;;;;;;8390551;28;19925;-69
2023/03/03 04:31:41;;;;;;;;;;;2.90;85.00;;;;;;8387455;28;19925;-69
2023/03/03 04:35:43;;;;;;;;;;;2.90;85.30;;;;;;8394656;28;19951;-69
2023/03/03 04:39:44;;;;;;;;;;;2.90;85.40;;;;;;8378396;28;20277;-69
2023/03/03 04:43:46;;;;;;;;;;;2.90;85.50;;;;;;8381352;28;19964;-70
2023/03/03 04:52:57;;;;;;;;;;;2.90;85.70;;;;;;8375948;28;20409;-70
2023/03/03 04:56:59;;;;;;;;;;;2.90;85.50;;;;;;8383246;28;19960;-69
2023/03/03 05:01:00;;;;;;;;;;;3.00;86.10;;;;;;8389601;28;19926;-69
2023/03/03 05:05:02;;;;;;;;;;;3.00;86.00;;;;;;8372725;28;20004;-70
2023/03/03 05:09:04;;;;;;;;;;;3.00;86.10;;;;;;8390159;28;19935;-70
2023/03/03 05:13:06;;;;;;;;;;;2.90;85.70;;;;;;8395025;28;20007;-70
2023/03/03 05:17:08;;;;;;;;;;;2.90;86.20;;;;;;8374958;28;20006;-70
2023/03/03 05:21:10;;;;;;;;;;;2.90;87.50;;;;;;8384160;28;19975;-69
2023/03/03 05:25:12;;;;;;;;;;;2.90;87.00;;;;;;8389395;28;19960;-69
2023/03/03 05:29:13;;;;;;;;;;;2.90;86.50;;;;;;8390906;28;19924;-69
2023/03/03 05:33:15;;;;;;;;;;;2.90;85.80;;;;;;8390921;28;19924;-69
2023/03/03 05:37:17;;;;;;;;;;;2.90;86.10;;;;;;8391511;28;19971;-70
2023/03/03 05:41:19;;;;;;;;;;;2.90;86.40;;;;;;8394399;28;19924;-70
2023/03/03 05:45:23;;;;;;;;;;;2.90;86.20;;;;;;8392388;28;21043;-70
2023/03/03 05:49:25;;;;;;;;;;;2.90;87.60;;;;;;8367771;28;19933;-69
2023/03/03 05:53:27;;;;;;;;;;;2.90;87.80;;;;;;8389005;28;19928;-69
2023/03/03 05:57:29;;;;;;;;;;;2.90;88.00;;;;;;8373932;28;20344;-69
2023/03/03 06:01:31;;;;;;;;;;;2.90;86.90;;;;;;8390152;28;20019;-69
2023/03/03 06:05:33;;;;;;;;;;;3.00;87.10;;;;;;8383720;28;19925;-69
2023/03/03 06:09:35;;;;;;;;;;;3.00;87.90;;;;;;8381680;28;20326;-70
2023/03/03 06:13:37;;;;;;;;;;;3.00;87.60;;;;;;8385771;28;20464;-69
2023/03/03 06:17:39;;;;;;;;;;;3.00;88.30;;;;;;8384433;28;20011;-69
2023/03/03 06:21:40;;;;;;;;;;;3.00;87.40;;;;;;8374729;28;19975;-69
2023/03/03 06:25:43;;;;;;;;;;;3.00;88.30;;;;;;8389961;28;19937;-69
2023/03/03 06:29:45;;;;;;;;;;;3.00;88.30;;;;;;8372589;28;19954;-70
2023/03/03 06:33:46;;;;;;;;;;;3.00;88.80;;;;;;8390775;28;19924;-69
2023/03/03 06:47:55;;;;;;;;;;;3.10;88.30;;;;;;8389697;28;19918;-70
2023/03/03 06:52:00;;;;;;;;;;;3.10;89.80;;;;;;8387738;28;19971;-69
2023/03/03 06:56:07;;;;;;;;;;;3.10;90.00;;;;;;8387843;28;20042;-69
2023/03/03 07:00:16;;;;;;;;;;;3.10;89.50;;;;;;8373293;28;19984;-69
2023/03/03 07:04:18;;;;;;;;;;;3.10;89.70;;;;;;8391101;28;19928;-69
2023/03/03 07:08:21;;;;;;;;;;;3.10;90.40;;;;;;8380615;28;19924;-69
2023/03/03 07:12:28;;;;;;;;;;;3.20;90.10;;;;;;8388571;28;19975;-69
2023/03/03 07:16:29;;;;;;;;;;;3.20;90.60;;;;;;8386158;28;19967;-69
2023/03/03 07:20:34;;;;;;;;;;;3.30;91.00;;;;;;8385933;28;20007;-69
2023/03/03 07:24:35;;;;;;;;;;;3.30;90.50;;;;;;8388581;28;19929;-69
2023/03/03 07:28:40;;;;;;;;;;;3.40;91.00;;;;;;8372924;28;20345;-69
2023/03/03 07:32:42;;;;;;;;;;;3.40;90.80;;;;;;8384894;28;19936;-69
2023/03/03 07:36:44;;;;;;;;;;;3.50;91.10;;;;;;8383743;28;19932;-69
2023/03/03 07:40:48;;;;;;;;;;;3.50;91.50;;;;;;8358060;28;19951;-69
2023/03/03 08:05:27;;;;;;;;;;;3.70;91.90;;;;;;8355851;28;19919;-70
2023/03/03 08:09:36;;;;;;;;;;;3.70;92.30;;;;;;8357544;28;20284;-69
2023/03/03 08:13:39;;;;;;;;;;;3.80;92.10;;;;;;8340168;28;20427;-69
2023/03/03 08:17:41;;;;;;;;;;;3.90;93.20;;;;;;8354751;28;19925;-69
2023/03/03 08:21:43;;;;;;;;;;;3.90;92.70;;;;;;8341670;28;19932;-69
2023/03/03 08:25:46;;;;;;;;;;;3.90;92.50;;;;;;8357214;28;19969;-70
2023/03/03 08:29:48;;;;;;;;;;;4.00;92.90;;;;;;8375366;28;19936;-69
2023/03/03 08:33:50;;;;;;;;;;;4.00;92.80;;;;;;8390663;28;20387;-69
2023/03/03 08:37:52;;;;;;;;;;;4.10;92.70;;;;;;8371271;28;19948;-69
2023/03/03 08:46:57;;;;;;;;;;;4.20;92.70;;;;;;8386009;28;19923;-69
2023/03/03 09:01:18;;;;;;;;;;;4.40;93.70;;;;;;8369030;28;20394;-70
2023/03/03 09:05:21;;;;;;;;;;;4.50;93.70;;;;;;8393307;28;19978;-69
2023/03/03 09:09:22;;;;;;;;;;;4.60;93.90;;;;;;8375768;28;19971;-70
2023/03/03 09:13:24;;;;;;;;;;;4.70;94.40;;;;;;8388783;28;20303;-70
2023/03/03 09:17:30;;;;;;;;;;;4.80;94.60;;;;;;8371934;28;20389;-70
2023/03/03 09:21:32;;;;;;;;;;;4.90;94.80;;;;;;8391868;28;20007;-70
2023/03/03 09:25:36;;;;;;;;;;;5.00;95.50;;;;;;8389416;28;20487;-70
2023/03/03 09:29:37;;;;;;;;;;;5.10;95.60;;;;;;8390481;28;19939;-69
2023/03/03 09:33:41;;;;;;;;;;;5.20;96.00;;;;;;8392555;28;19976;-69
2023/03/03 09:37:43;;;;;;;;;;;5.40;95.90;;;;;;8388906;28;19925;-69
2023/03/03 09:41:55;;;;;;;;;;;5.50;96.20;;;;;;8382764;28;20391;-69
2023/03/03 09:46:09;;;;;;;;;;;5.60;96.30;;;;;;8381140;28;19928;-70
2023/03/03 09:50:11;;;;;;;;;;;5.80;96.60;;;;;;8391292;28;19932;-69
2023/03/03 09:54:13;;;;;;;;;;;5.80;97.30;;;;;;8402042;28;20300;-69
2023/03/03 09:58:27;;;;;;;;;;;6.00;97.30;;;;;;8393329;28;19929;-69
2023/03/03 10:02:34;;;;;;;;;;;6.10;98.30;;;;;;8386741;28;19928;-69
2023/03/03 10:06:41;;;;;;;;;;;6.30;98.30;;;;;;8392542;28;20410;-70
2023/03/03 10:10:55;;;;;;;;;;;6.40;97.80;;;;;;8369775;28;19933;-70
2023/03/03 10:15:15;;;;;;;;;;;6.50;98.10;;;;;;8372345;28;20264;-70
2023/03/03 10:19:16;;;;;;;;;;;6.50;98.10;;;;;;8390649;28;19934;-70
2023/03/03 10:23:24;;;;;;;;;;;6.60;98.20;;;;;;8385675;28;19981;-70
2023/03/03 10:27:25;;;;;;;;;;;6.60;98.50;;;;;;8368967;28;19946;-70
2023/03/03 10:31:52;;;;;;;;;;;6.80;98.80;;;;;;8378162;28;19925;-70
2023/03/03 10:46:11;;;;;;;;;;;7.60;99.90;;;;;;8385765;28;19918;-70
2023/03/03 10:50:16;;;;;;;;;;;8.30;99.90;;;;;;8388857;28;20388;-70
2023/03/03 10:54:36;;;;;;;;;;;8.90;99.90;;;;;;8392212;28;19936;-70
2023/03/03 10:58:40;;;;;;;;;;;9.30;99.90;;;;;;8383214;28;19936;-70
2023/03/03 11:02:56;;;;;;;;;;;9.50;99.90;;;;;;8383929;28;19936;-70
2023/03/03 11:07:05;;;;;;;;;;;10.20;99.90;;;;;;8385525;28;19967;-70
2023/03/03 11:11:19;;;;;;;;;;;10.90;99.90;;;;;;8397916;28;19999;-70
2023/03/03 11:15:29;;;;;;;;;;;11.80;99.90;;;;;;8387487;28;20007;-70
2023/03/03 11:19:37;;;;;;;;;;;12.80;99.90;;;;;;8389445;28;19937;-70
2023/03/03 11:23:48;;;;;;;;;;;13.60;99.90;;;;;;8385223;28;20305;-70
2023/03/03 11:27:52;;;;;;;;;;;14.30;99.90;;;;;;8386117;28;19925;-70
2023/03/03 11:31:55;;;;;;;;;;;15.00;99.90;;;;;;8384230;28;19924;-70
2023/03/03 11:36:18;;;;;;;;;;;15.60;99.90;;;;;;8386956;28;19929;-70
2023/03/03 11:40:23;;;;;;;;;;;16.20;99.90;;;;;;8368165;28;20390;-70
2023/03/03 12:04:52;;;;;;;;;;;17.20;99.90;;;;;;8365955;28;20021;-70
2023/03/03 12:09:06;;;;;;;;;;;17.80;99.90;;;;;;8362082;28;20388;-70
2023/03/03 12:13:20;;;;;;;;;;;18.30;99.90;;;;;;8376625;28;20292;-70
2023/03/03 12:17:45;;;;;;;;;;;17.80;99.90;;;;;;8363280;28;19976;-70
2023/03/03 12:21:52;;;;;;;;;;;17.30;99.90;;;;;;8339885;28;19928;-70
2023/03/03 12:26:09;;;;;;;;;;;17.40;99.90;;;;;;8376439;28;19932;-70
2023/03/03 12:30:19;;;;;;;;;;;17.60;99.90;;;;;;8368632;28;19933;-70
2023/03/03 12:34:25;;;;;;;;;;;17.90;99.90;;;;;;8362377;28;19947;-70
2023/03/03 12:38:47;;;;;;;;;;;18.60;99.90;;;;;;8356867;28;19928;-70
2023/03/03 12:43:07;;;;;;;;;;;18.90;99.90;;;;;;8361291;28;19979;-70
2023/03/03 12:47:09;;;;;;;;;;;19.20;99.90;;;;;;8361747;28;19929;-70
2023/03/03 12:51:26;;;;;;;;;;;19.20;99.90;;;;;;8361240;28;19991;-70
2023/03/03 12:55:31;;;;;;;;;;;18.90;99.90;;;;;;8363796;28;19924;-70
2023/03/03 12:59:39;;;;;;;;;;;17.60;99.90;;;;;;8354184;28;20069;-70
2023/03/03 13:03:43;;;;;;;;;;;17.00;99.90;;;;;;8359067;28;19925;-70
2023/03/03 13:08:06;;;;;;;;;;;17.40;99.90;;;;;;8326956;28;19987;-70
2023/03/03 13:12:27;;;;;;;;;;;17.40;99.90;;;;;;8328837;28;19925;-70
2023/03/03 13:16:34;;;;;;;;;;;16.90;99.90;;;;;;8329807;28;19940;-69
2023/03/03 13:20:45;;;;;;;;;;;16.30;99.90;;;;;;8326102;28;19931;-70
2023/03/03 13:24:50;;;;;;;;;;;16.00;99.90;;;;;;8327354;28;20262;-70
2023/03/03 13:28:54;;;;;;;;;;;15.90;99.90;;;;;;8327314;28;21052;-70
2023/03/03 13:33:00;;;;;;;;;;;15.90;99.90;;;;;;8336682;28;19990;-70
2023/03/03 13:37:18;;;;;;;;;;;15.60;98.80;;;;;;8328150;28;20269;-70
2023/03/03 13:56:50;;;;;;;;;;;13.70;95.10;;;;;;8329608;28;20002;-70
2023/03/03 14:00:56;;;;;;;;;;;13.50;94.80;;;;;;8335622;28;19932;-70
2023/03/03 14:05:03;;;;;;;;;;;13.60;95.10;;;;;;8361369;28;20002;-70
2023/03/03 14:09:05;;;;;;;;;;;13.60;94.80;;;;;;8357472;28;19925;-70
2023/03/03 14:13:23;;;;;;;;;;;13.60;94.90;;;;;;8359181;28;19935;-70
2023/03/03 14:17:43;;;;;;;;;;;13.40;94.10;;;;;;8356221;28;20035;-70
2023/03/03 14:21:52;;;;;;;;;;;12.90;94.00;;;;;;8356085;28;19925;-70
2023/03/03 14:26:20;;;;;;;;;;;12.50;93.30;;;;;;8354572;28;19978;-70
2023/03/03 14:30:21;;;;;;;;;;;12.30;93.40;;;;;;8370260;28;19932;-70
2023/03/03 14:34:23;;;;;;;;;;;12.10;92.90;;;;;;8358249;28;19931;-70
2023/03/03 14:38:30;;;;;;;;;;;12.10;92.80;;;;;;8363088;28;19935;-70
2023/03/03 14:42:47;;;;;;;;;;;12.00;92.70;;;;;;8356903;28;19928;-69
2023/03/03 14:47:04;;;;;;;;;;;12.10;92.70;;;;;;8355963;28;20389;-70
2023/03/03 14:51:26;;;;;;;;;;;12.10;92.70;;;;;;8359370;28;19929;-70
2023/03/03 14:55:33;;;;;;;;;;;12.20;92.60;;;;;;8366149;28;19925;-70
2023/03/03 14:59:35;;;;;;;;;;;12.30;92.40;;;;;;8362068;28;19929;-70
2023/03/03 15:03:43;;;;;;;;;;;12.20;92.40;;;;;;8362678;28;20289;-70
2023/03/03 15:07:45;;;;;;;;;;;12.10;92.00;;;;;;8362548;28;20288;-70
2023/03/03 15:11:50;;;;;;;;;;;11.90;91.90;;;;;;8367606;28;19960;-70
2023/03/03 15:15:58;;;;;;;;;;;11.80;91.50;;;;;;8366122;28;20395;-70
2023/03/03 15:20:09;;;;;;;;;;;11.80;91.50;;;;;;8366476;28;20337;-69
2023/03/03 15:24:19;;;;;;;;;;;12.20;92.50;;;;;;8364887;28;20402;-69
2023/03/03 15:28:26;;;;;;;;;;;12.50;92.30;;;;;;8362926;28;20264;-69
2023/03/03 15:32:32;;;;;;;;;;;12.40;91.70;;;;;;8361446;28;20391;-70
2023/03/03 15:36:46;;;;;;;;;;;12.20;91.10;;;;;;8369122;28;19932;-70
2023/03/03 15:40:51;;;;;;;;;;;11.80;90.90;;;;;;8366892;28;19924;-70
2023/03/03 15:44:53;;;;;;;;;;;11.70;91.10;;;;;;8365215;28;20292;-70
2023/03/03 15:49:04;;;;;;;;;;;12.00;91.80;;;;;;8383408;28;20424;-70
2023/03/03 15:53:20;;;;;;;;;;;11.80;91.30;;;;;;8374189;28;19924;-70
2023/03/03 15:57:34;;;;;;;;;;;11.50;90.70;;;;;;8366325;28;20372;-70
2023/03/03 16:01:45;;;;;;;;;;;11.30;90.40;;;;;;8365945;28;19933;-70
2023/03/03 16:05:52;;;;;;;;;;;11.20;90.50;;;;;;8366550;28;19928;-70
2023/03/03 16:10:02;;;;;;;;;;;11.10;90.40;;;;;;8364479;28;19932;-70
2023/03/03 16:14:32;;;;;;;;;;;11.00;90.30;;;;;;8366390;28;19973;-70
2023/03/03 16:18:37;;;;;;;;;;;10.70;90.00;;;;;;8351521;28;19933;-70
2023/03/03 16:22:54;;;;;;;;;;;10.40;89.10;;;;;;8368475;28;19929;-70
2023/03/03 16:27:04;;;;;;;;;;;10.30;89.40;;;;;;8362725;28;20023;-70
2023/03/03 16:31:17;;;;;;;;;;;10.20;89.00;;;;;;8361173;28;19935;-70
2023/03/03 16:35:24;;;;;;;;;;;10.10;88.20;;;;;;8358424;28;19925;-70
2023/03/03 16:39:44;;;;;;;;;;;10.10;88.40;;;;;;8363988;28;19925;-70
2023/03/03 16:44:03;;;;;;;;;;;9.90;88.30;;;;;;8379837;28;19932;-70
2023/03/03 16:48:11;;;;;;;;;;;9.80;88.00;;;;;;8367827;28;19924;-70
2023/03/03 16:52:14;;;;;;;;;;;9.60;87.90;;;;;;8366217;28;19925;-70
2023/03/03 16:56:24;;;;;;;;;;;9.60;88.60;;;;;;8371405;28;20020;-70
2023/03/03 17:05:41;;;;;;;;;;;9.30;86.70;;;;;;8329889;28;19943;-69
2023/03/03 17:19:59;;;;;;;;;;;8.90;85.70;;;;;;8364507;28;20532;-70
2023/03/03 17:24:05;;;;;;;;;;;8.80;85.10;;;;;;8359778;28;19932;-70
2023/03/03 17:28:09;;;;;;;;;;;8.70;85.50;;;;;;8362368;28;19932;-70
2023/03/03 17:32:24;;;;;;;;;;;8.60;84.20;;;;;;8362640;28;20016;-70
2023/03/03 17:36:32;;;;;;;;;;;8.60;84.90;;;;;;8367319;28;19924;-70
2023/03/03 17:40:46;;;;;;;;;;;8.60;84.50;;;;;;8364839;28;20011;-69
2023/03/03 17:44:47;;;;;;;;;;;8.60;85.00;;;;;;8361543;28;19931;-69
2023/03/03 17:49:17;;;;;;;;;;;8.70;85.20;;;;;;8361105;28;19963;-70
2023/03/03 17:53:25;;;;;;;;;;;8.70;85.40;;;;;;8358325;28;20429;-70
2023/03/03 17:57:40;;;;;;;;;;;8.80;85.80;;;;;;8365299;28;19946;-70
2023/03/03 18:02:09;;;;;;;;;;;8.80;87.60;;;;;;8356971;28;19924;-70
2023/03/03 18:06:30;;;;;;;;;;;8.90;87.00;;;;;;8360381;28;19971;-70
2023/03/03 18:10:47;;;;;;;;;;;8.90;87.20;;;;;;8340878;28;19952;-70
2023/03/03 18:15:07;;;;;;;;;;;8.90;86.90;;;;;;8374106;28;19924;-70
2023/03/03 18:19:15;;;;;;;;;;;8.90;87.20;;;;;;8364600;28;19925;-70
2023/03/03 18:23:40;;;;;;;;;;;8.70;89.90;;;;;;8361420;28;19961;-69
2023/03/03 18:27:43;;;;;;;;;;;8.60;89.00;;;;;;8357285;28;19944;-70
2023/03/03 18:31:45;;;;;;;;;;;8.50;88.60;;;;;;8362645;28;20035;-70
2023/03/03 18:35:48;;;;;;;;;;;8.50;88.00;;;;;;8376014;28;19971;-69
2023/03/03 18:40:12;;;;;;;;;;;8.50;88.60;;;;;;8362834;28;19925;-69
2023/03/03 18:44:26;;;;;;;;;;;8.50;87.90;;;;;;8365446;28;19929;-69
2023/03/03 18:48:48;;;;;;;;;;;8.50;89.10;;;;;;8357960;28;20281;-69
2023/03/03 18:53:19;;;;;;;;;;;8.50;88.70;;;;;;8361324;28;19931;-69
2023/03/03 18:57:20;;;;;;;;;;;8.40;88.10;;;;;;8341804;28;20031;-69
2023/03/03 19:01:34;;;;;;;;;;;8.30;88.60;;;;;;8362519;28;19932;-70
2023/03/03 19:05:45;;;;;;;;;;;8.30;90.00;;;;;;8360734;28;19925;-70
2023/03/03 19:09:56;;;;;;;;;;;8.20;89.70;;;;;;8342501;28;19925;-70
2023/03/03 19:14:10;;;;;;;;;;;8.20;90.70;;;;;;8366140;28;20349;-70
2023/03/03 19:18:17;;;;;;;;;;;8.10;90.30;;;;;;8358760;28;20353;-70
2023/03/03 19:22:26;;;;;;;;;;;8.10;90.80;;;;;;8358456;28;19929;-70
2023/03/03 19:26:37;;;;;;;;;;;8.10;90.00;;;;;;8359832;28;19967;-70
2023/03/03 19:30:41;;;;;;;;;;;8.10;89.70;;;;;;8365774;28;19935;-70
2023/03/03 19:34:53;;;;;;;;;;;8.00;90.30;;;;;;8360725;28;19925;-70
2023/03/03 19:39:04;;;;;;;;;;;8.00;90.20;;;;;;8361421;28;19925;-70
2023/03/03 19:43:12;;;;;;;;;;;8.00;90.20;;;;;;8359423;28;19929;-70
2023/03/03 19:47:32;;;;;;;;;;;8.00;89.80;;;;;;8355370;28;19929;-70
2023/03/03 19:51:52;;;;;;;;;;;8.00;89.50;;;;;;8365681;28;19975;-70
2023/03/03 19:55:53;;;;;;;;;;;7.90;90.90;;;;;;8361634;28;19929;-69
2023/03/03 20:00:04;;;;;;;;;;;7.90;90.30;;;;;;8365774;28;19976;-69
2023/03/03 20:04:29;;;;;;;;;;;8.00;90.10;;;;;;8365921;28;19935;-69
2023/03/03 20:08:36;;;;;;;;;;;8.00;90.00;;;;;;8357478;28;20199;-70
2023/03/03 20:12:59;;;;;;;;;;;8.00;89.30;;;;;;8363270;28;20356;-70
2023/03/03 20:17:11;;;;;;;;;;;8.00;90.00;;;;;;8362855;28;20342;-70
2023/03/03 20:21:12;;;;;;;;;;;8.00;90.30;;;;;;8363312;28;19972;-70
2023/03/03 20:25:20;;;;;;;;;;;8.00;89.90;;;;;;8368235;28;19933;-70
2023/03/03 20:29:31;;;;;;;;;;;7.90;89.40;;;;;;8362468;28;19967;-70
2023/03/03 20:33:38;;;;;;;;;;;7.90;89.90;;;;;;8365959;28;19947;-70
2023/03/03 20:37:43;;;;;;;;;;;7.90;90.50;;;;;;8367108;28;19933;-70
2023/03/03 20:46:48;;;;;;;;;;;7.80;90.00;;;;;;8365721;28;20024;-70
2023/03/03 20:50:52;;;;;;;;;;;7.80;90.10;;;;;;8367240;28;19936;-70
2023/03/03 20:55:12;;;;;;;;;;;7.80;90.80;;;;;;8363857;28;20516;-70
2023/03/03 20:59:20;;;;;;;;;;;7.80;91.30;;;;;;8364408;28;20046;-70
2023/03/03 21:03:36;;;;;;;;;;;7.80;90.90;;;;;;8364274;28;19931;-70
2023/03/03 21:07:49;;;;;;;;;;;7.90;90.80;;;;;;8362235;28;19925;-70
2023/03/03 21:11:51;;;;;;;;;;;7.80;90.40;;;;;;8365607;28;19952;-70
2023/03/03 21:15:54;;;;;;;;;;;7.80;90.10;;;;;;8365062;28;20384;-70
2023/03/03 21:20:15;;;;;;;;;;;7.80;91.10;;;;;;8361423;28;19924;-70
2023/03/03 21:24:19;;;;;;;;;;;7.80;90.90;;;;;;8366042;28;19980;-70
2023/03/03 21:28:25;;;;;;;;;;;7.70;90.80;;;;;;8363650;28;19999;-70
2023/03/03 21:32:43;;;;;;;;;;;7.70;91.10;;;;;;8364580;28;19929;-70
2023/03/03 21:36:47;;;;;;;;;;;7.70;90.90;;;;;;8360377;28;20402;-70
2023/03/03 21:40:58;;;;;;;;;;;7.70;90.80;;;;;;8359490;28;19925;-70
2023/03/03 21:55:13;;;;;;;;;;;7.70;91.10;;;;;;8358911;28;20013;-70
2023/03/03 21:59:15;;;;;;;;;;;7.70;91.30;;;;;;8367984;28;19928;-70
2023/03/03 22:03:20;;;;;;;;;;;7.70;90.90;;;;;;8380232;28;19924;-70
2023/03/03 22:07:22;;;;;;;;;;;7.70;90.50;;;;;;8385333;28;19925;-70
2023/03/03 22:11:23;;;;;;;;;;;7.70;90.70;;;;;;8390356;28;19924;-70
2023/03/03 22:15:26;;;;;;;;;;;7.60;90.80;;;;;;8391727;28;19936;-70
2023/03/03 22:19:28;;;;;;;;;;;7.60;90.70;;;;;;8385202;28;19947;-70
2023/03/03 22:23:29;;;;;;;;;;;7.60;91.00;;;;;;8375199;28;20309;-70
2023/03/03 22:27:31;;;;;;;;;;;7.60;91.70;;;;;;8383949;28;19978;-70
2023/03/03 22:31:33;;;;;;;;;;;7.60;91.30;;;;;;8388989;28;19931;-70
2023/03/03 22:35:35;;;;;;;;;;;7.60;92.10;;;;;;8371590;28;20269;-70
2023/03/03 22:39:37;;;;;;;;;;;7.50;91.10;;;;;;8380812;28;19929;-70
2023/03/03 22:43:38;;;;;;;;;;;7.50;91.50;;;;;;8390117;28;19925;-70
2023/03/03 22:47:40;;;;;;;;;;;7.40;92.60;;;;;;8388594;28;19928;-69
2023/03/03 22:51:42;;;;;;;;;;;7.40;91.10;;;;;;8385893;28;20007;-70
2023/03/03 22:55:43;;;;;;;;;;;7.40;91.40;;;;;;8372321;28;19931;-70
2023/03/03 22:59:45;;;;;;;;;;;7.40;92.10;;;;;;8385075;28;19960;-70
2023/03/03 23:03:46;;;;;;;;;;;7.40;91.40;;;;;;8373351;28;19925;-70
2023/03/03 23:07:48;;;;;;;;;;;7.40;91.70;;;;;;8386571;28;19928;-70
2023/03/03 23:11:50;;;;;;;;;;;7.40;91.60;;;;;;8387208;28;19947;-70
2023/03/03 23:15:51;;;;;;;;;;;7.40;92.10;;;;;;8389008;28;19931;-70
2023/03/03 23:19:53;;;;;;;;;;;7.40;91.90;;;;;;8370887;28;20395;-70
2023/03/03 23:23:54;;;;;;;;;;;7.40;91.70;;;;;;8392434;28;19925;-70
2023/03/03 23:27:56;;;;;;;;;;;7.40;91.70;;;;;;8396234;28;19932;-70
2023/03/03 23:31:58;;;;;;;;;;;7.30;92.40;;;;;;8392562;28;19928;-70
2023/03/03 23:35:59;;;;;;;;;;;7.30;91.50;;;;;;8393407;28;19925;-70
2023/03/03 23:40:01;;;;;;;;;;;7.30;91.90;;;;;;8387392;28;20439;-70
2023/03/03 23:44:03;;;;;;;;;;;7.20;91.80;;;;;;8379292;28;19932;-70
2023/03/03 23:48:05;;;;;;;;;;;7.20;92.30;;;;;;8391871;28;20003;-70
2023/03/03 23:52:07;;;;;;;;;;;7.20;92.30;;;;;;8390846;28;19932;-70
2023/03/03 23:56:08;;;;;;;;;;;7.20;91.90;;;;;;8389628;28;19924;-70
